sensor_id;sensor_type;location;lat;lon;timestamp;P1;durP1;ratioP1;P2;durP2;ratioP2
19278;SDS011;9773;47.062;15.446;2023-06-19T00:02:20;8.33;;;7.43;;
19278;SDS011;9773;47.062;15.446;2023-06-19T00:04:46;7.77;;;7.10;;
19278;SDS011;9773;47.062;15.446;2023-06-19T00:07:11;9.13;;;7.33;;
19278;SDS011;9773;47.062;15.446;2023-06-19T00:09:37;10.20;;;7.43;;
19278;SDS011;9773;47.062;15.446;2023-06-19T00:12:03;7.77;;;7.07;;
19278;SDS011;9773;47.062;15.446;2023-06-19T00:14:29;8.50;;;7.63;;
19278;SDS011;9773;47.062;15.446;2023-06-19T00:16:55;7.87;;;7.17;;
19278;SDS011;9773;47.062;15.446;2023-06-19T00:19:21;8.80;;;7.80;;
19278;SDS011;9773;47.062;15.446;2023-06-19T00:21:48;7.70;;;6.93;;
19278;SDS011;9773;47.062;15.446;2023-06-19T00:24:14;11.40;;;7.63;;
19278;SDS011;9773;47.062;15.446;2023-06-19T00:26:39;7.67;;;6.90;;
19278;SDS011;9773;47.062;15.446;2023-06-19T00:29:05;7.43;;;6.83;;
19278;SDS011;9773;47.062;15.446;2023-06-19T00:31:32;8.03;;;7.30;;
19278;SDS011;9773;47.062;15.446;2023-06-19T00:33:58;8.13;;;7.30;;
19278;SDS011;9773;47.062;15.446;2023-06-19T00:36:24;8.30;;;7.50;;
19278;SDS011;9773;47.062;15.446;2023-06-19T00:38:51;7.90;;;7.20;;
19278;SDS011;9773;47.062;15.446;2023-06-19T00:41:17;8.47;;;7.60;;
19278;SDS011;9773;47.062;15.446;2023-06-19T00:43:43;11.23;;;7.40;;
19278;SDS011;9773;47.062;15.446;2023-06-19T00:46:09;8.67;;;7.13;;
19278;SDS011;9773;47.062;15.446;2023-06-19T00:48:36;7.93;;;7.23;;
19278;SDS011;9773;47.062;15.446;2023-06-19T00:51:02;8.10;;;7.40;;
19278;SDS011;9773;47.062;15.446;2023-06-19T00:53:28;7.67;;;7.07;;
19278;SDS011;9773;47.062;15.446;2023-06-19T00:55:56;7.73;;;7.13;;
19278;SDS011;9773;47.062;15.446;2023-06-19T00:58:22;8.10;;;7.40;;
19278;SDS011;9773;47.062;15.446;2023-06-19T01:00:49;8.03;;;7.33;;
19278;SDS011;9773;47.062;15.446;2023-06-19T01:03:15;7.73;;;7.03;;
19278;SDS011;9773;47.062;15.446;2023-06-19T01:05:41;8.13;;;7.43;;
19278;SDS011;9773;47.062;15.446;2023-06-19T01:11:07;8.33;;;7.53;;
19278;SDS011;9773;47.062;15.446;2023-06-19T01:16:02;8.03;;;7.33;;
19278;SDS011;9773;47.062;15.446;2023-06-19T01:18:29;7.70;;;7.10;;
19278;SDS011;9773;47.062;15.446;2023-06-19T01:20:56;8.03;;;7.10;;
19278;SDS011;9773;47.062;15.446;2023-06-19T01:23:33;8.00;;;7.20;;
19278;SDS011;9773;47.062;15.446;2023-06-19T01:25:59;9.20;;;7.90;;
19278;SDS011;9773;47.062;15.446;2023-06-19T01:28:25;7.07;;;6.50;;
19278;SDS011;9773;47.062;15.446;2023-06-19T01:30:51;8.47;;;7.73;;
19278;SDS011;9773;47.062;15.446;2023-06-19T01:33:22;9.13;;;8.17;;
19278;SDS011;9773;47.062;15.446;2023-06-19T01:35:51;8.07;;;7.33;;
19278;SDS011;9773;47.062;15.446;2023-06-19T01:38:18;7.67;;;7.07;;
19278;SDS011;9773;47.062;15.446;2023-06-19T01:40:46;8.50;;;7.70;;
19278;SDS011;9773;47.062;15.446;2023-06-19T01:43:14;8.10;;;7.40;;
19278;SDS011;9773;47.062;15.446;2023-06-19T01:45:41;7.90;;;7.20;;
19278;SDS011;9773;47.062;15.446;2023-06-19T01:48:07;7.63;;;6.83;;
19278;SDS011;9773;47.062;15.446;2023-06-19T01:50:33;8.03;;;7.33;;
19278;SDS011;9773;47.062;15.446;2023-06-19T01:52:59;8.30;;;7.50;;
19278;SDS011;9773;47.062;15.446;2023-06-19T01:55:25;8.27;;;7.50;;
19278;SDS011;9773;47.062;15.446;2023-06-19T01:57:51;8.83;;;7.30;;
19278;SDS011;9773;47.062;15.446;2023-06-19T02:00:17;8.40;;;7.67;;
19278;SDS011;9773;47.062;15.446;2023-06-19T02:02:43;8.43;;;7.63;;
19278;SDS011;9773;47.062;15.446;2023-06-19T02:05:09;8.27;;;7.57;;
19278;SDS011;9773;47.062;15.446;2023-06-19T02:07:34;8.60;;;7.80;;
19278;SDS011;9773;47.062;15.446;2023-06-19T02:10:00;8.13;;;7.43;;
19278;SDS011;9773;47.062;15.446;2023-06-19T02:12:26;8.10;;;7.40;;
19278;SDS011;9773;47.062;15.446;2023-06-19T02:14:52;7.70;;;7.00;;
19278;SDS011;9773;47.062;15.446;2023-06-19T02:17:17;8.17;;;7.37;;
19278;SDS011;9773;47.062;15.446;2023-06-19T02:19:43;7.87;;;7.03;;
19278;SDS011;9773;47.062;15.446;2023-06-19T02:22:10;8.23;;;7.43;;
19278;SDS011;9773;47.062;15.446;2023-06-19T02:24:36;9.10;;;7.60;;
19278;SDS011;9773;47.062;15.446;2023-06-19T02:27:05;8.23;;;7.43;;
19278;SDS011;9773;47.062;15.446;2023-06-19T02:29:31;8.67;;;7.87;;
19278;SDS011;9773;47.062;15.446;2023-06-19T02:31:59;7.90;;;7.23;;
19278;SDS011;9773;47.062;15.446;2023-06-19T02:34:25;7.53;;;6.93;;
19278;SDS011;9773;47.062;15.446;2023-06-19T02:36:51;8.53;;;7.73;;
19278;SDS011;9773;47.062;15.446;2023-06-19T02:39:16;8.53;;;7.83;;
19278;SDS011;9773;47.062;15.446;2023-06-19T02:41:43;8.60;;;7.80;;
19278;SDS011;9773;47.062;15.446;2023-06-19T02:44:13;8.30;;;7.47;;
19278;SDS011;9773;47.062;15.446;2023-06-19T02:46:40;8.30;;;7.50;;
19278;SDS011;9773;47.062;15.446;2023-06-19T02:49:05;8.17;;;7.47;;
19278;SDS011;9773;47.062;15.446;2023-06-19T02:51:31;7.43;;;6.83;;
19278;SDS011;9773;47.062;15.446;2023-06-19T02:53:57;7.73;;;7.03;;
19278;SDS011;9773;47.062;15.446;2023-06-19T02:56:23;8.67;;;7.87;;
19278;SDS011;9773;47.062;15.446;2023-06-19T02:58:50;8.13;;;7.43;;
19278;SDS011;9773;47.062;15.446;2023-06-19T03:01:16;8.33;;;7.63;;
19278;SDS011;9773;47.062;15.446;2023-06-19T03:03:42;8.13;;;7.33;;
19278;SDS011;9773;47.062;15.446;2023-06-19T03:06:11;9.10;;;8.00;;
19278;SDS011;9773;47.062;15.446;2023-06-19T03:08:40;7.60;;;6.90;;
19278;SDS011;9773;47.062;15.446;2023-06-19T03:11:06;7.77;;;7.07;;
19278;SDS011;9773;47.062;15.446;2023-06-19T03:13:54;8.37;;;7.57;;
19278;SDS011;9773;47.062;15.446;2023-06-19T03:16:19;8.37;;;7.57;;
19278;SDS011;9773;47.062;15.446;2023-06-19T03:18:46;8.23;;;7.43;;
19278;SDS011;9773;47.062;15.446;2023-06-19T03:21:15;8.00;;;7.37;;
19278;SDS011;9773;47.062;15.446;2023-06-19T03:23:42;8.17;;;7.37;;
19278;SDS011;9773;47.062;15.446;2023-06-19T03:26:08;8.50;;;7.70;;
19278;SDS011;9773;47.062;15.446;2023-06-19T03:28:35;8.07;;;7.33;;
19278;SDS011;9773;47.062;15.446;2023-06-19T03:31:01;7.73;;;7.03;;
19278;SDS011;9773;47.062;15.446;2023-06-19T03:33:27;7.33;;;6.73;;
19278;SDS011;9773;47.062;15.446;2023-06-19T03:35:52;8.60;;;7.70;;
19278;SDS011;9773;47.062;15.446;2023-06-19T03:38:18;9.67;;;7.87;;
19278;SDS011;9773;47.062;15.446;2023-06-19T03:40:44;8.33;;;7.53;;
19278;SDS011;9773;47.062;15.446;2023-06-19T03:43:10;9.13;;;8.20;;
19278;SDS011;9773;47.062;15.446;2023-06-19T03:45:36;8.50;;;7.70;;
19278;SDS011;9773;47.062;15.446;2023-06-19T03:48:02;8.13;;;7.40;;
19278;SDS011;9773;47.062;15.446;2023-06-19T03:50:28;8.00;;;7.20;;
19278;SDS011;9773;47.062;15.446;2023-06-19T03:52:54;8.67;;;7.57;;
19278;SDS011;9773;47.062;15.446;2023-06-19T03:55:20;8.97;;;8.00;;
19278;SDS011;9773;47.062;15.446;2023-06-19T03:57:46;8.23;;;7.43;;
19278;SDS011;9773;47.062;15.446;2023-06-19T04:00:12;8.73;;;7.90;;
19278;SDS011;9773;47.062;15.446;2023-06-19T04:02:39;8.90;;;8.00;;
19278;SDS011;9773;47.062;15.446;2023-06-19T04:05:06;8.73;;;7.80;;
19278;SDS011;9773;47.062;15.446;2023-06-19T04:07:32;9.20;;;8.17;;
19278;SDS011;9773;47.062;15.446;2023-06-19T04:09:58;8.63;;;7.83;;
19278;SDS011;9773;47.062;15.446;2023-06-19T04:12:24;8.67;;;7.80;;
19278;SDS011;9773;47.062;15.446;2023-06-19T04:14:50;8.83;;;8.03;;
19278;SDS011;9773;47.062;15.446;2023-06-19T04:17:16;9.30;;;8.43;;
19278;SDS011;9773;47.062;15.446;2023-06-19T04:19:42;9.00;;;8.13;;
19278;SDS011;9773;47.062;15.446;2023-06-19T04:22:08;8.77;;;7.90;;
19278;SDS011;9773;47.062;15.446;2023-06-19T04:24:34;8.90;;;8.00;;
19278;SDS011;9773;47.062;15.446;2023-06-19T04:27:00;8.73;;;7.93;;
19278;SDS011;9773;47.062;15.446;2023-06-19T04:29:26;9.20;;;8.30;;
19278;SDS011;9773;47.062;15.446;2023-06-19T04:31:57;8.93;;;8.07;;
19278;SDS011;9773;47.062;15.446;2023-06-19T04:34:23;10.67;;;8.43;;
19278;SDS011;9773;47.062;15.446;2023-06-19T04:36:49;8.33;;;7.57;;
19278;SDS011;9773;47.062;15.446;2023-06-19T04:39:15;8.80;;;8.00;;
19278;SDS011;9773;47.062;15.446;2023-06-19T04:41:42;9.90;;;8.90;;
19278;SDS011;9773;47.062;15.446;2023-06-19T04:44:09;8.77;;;7.73;;
19278;SDS011;9773;47.062;15.446;2023-06-19T04:46:36;10.00;;;8.83;;
19278;SDS011;9773;47.062;15.446;2023-06-19T04:49:03;10.20;;;7.90;;
19278;SDS011;9773;47.062;15.446;2023-06-19T04:51:30;8.10;;;7.30;;
19278;SDS011;9773;47.062;15.446;2023-06-19T04:54:00;8.60;;;7.80;;
19278;SDS011;9773;47.062;15.446;2023-06-19T04:56:26;8.53;;;7.73;;
19278;SDS011;9773;47.062;15.446;2023-06-19T04:58:52;11.20;;;8.60;;
19278;SDS011;9773;47.062;15.446;2023-06-19T05:01:21;9.10;;;8.20;;
19278;SDS011;9773;47.062;15.446;2023-06-19T05:03:52;8.43;;;7.60;;
19278;SDS011;9773;47.062;15.446;2023-06-19T05:06:19;9.00;;;7.30;;
19278;SDS011;9773;47.062;15.446;2023-06-19T05:08:45;8.43;;;7.63;;
19278;SDS011;9773;47.062;15.446;2023-06-19T05:11:11;9.53;;;8.00;;
19278;SDS011;9773;47.062;15.446;2023-06-19T05:13:36;9.20;;;8.13;;
19278;SDS011;9773;47.062;15.446;2023-06-19T05:16:02;9.20;;;8.20;;
19278;SDS011;9773;47.062;15.446;2023-06-19T05:18:28;9.43;;;7.93;;
19278;SDS011;9773;47.062;15.446;2023-06-19T05:20:54;9.20;;;8.27;;
19278;SDS011;9773;47.062;15.446;2023-06-19T05:23:19;8.53;;;7.60;;
19278;SDS011;9773;47.062;15.446;2023-06-19T05:25:45;9.03;;;8.23;;
19278;SDS011;9773;47.062;15.446;2023-06-19T05:28:11;9.70;;;8.70;;
19278;SDS011;9773;47.062;15.446;2023-06-19T05:30:37;12.13;;;8.87;;
19278;SDS011;9773;47.062;15.446;2023-06-19T05:33:02;8.63;;;7.77;;
19278;SDS011;9773;47.062;15.446;2023-06-19T05:35:28;8.90;;;8.07;;
19278;SDS011;9773;47.062;15.446;2023-06-19T05:37:55;9.40;;;8.40;;
19278;SDS011;9773;47.062;15.446;2023-06-19T05:40:21;9.93;;;7.83;;
19278;SDS011;9773;47.062;15.446;2023-06-19T05:42:47;9.10;;;8.30;;
19278;SDS011;9773;47.062;15.446;2023-06-19T05:45:12;9.13;;;8.23;;
19278;SDS011;9773;47.062;15.446;2023-06-19T05:47:38;8.33;;;7.53;;
19278;SDS011;9773;47.062;15.446;2023-06-19T05:50:04;9.60;;;8.47;;
19278;SDS011;9773;47.062;15.446;2023-06-19T05:52:30;11.40;;;8.67;;
19278;SDS011;9773;47.062;15.446;2023-06-19T05:54:58;8.63;;;7.70;;
19278;SDS011;9773;47.062;15.446;2023-06-19T05:57:24;9.53;;;8.23;;
19278;SDS011;9773;47.062;15.446;2023-06-19T05:59:49;12.13;;;8.10;;
19278;SDS011;9773;47.062;15.446;2023-06-19T06:02:19;10.33;;;7.93;;
19278;SDS011;9773;47.062;15.446;2023-06-19T06:04:45;9.10;;;8.20;;
19278;SDS011;9773;47.062;15.446;2023-06-19T06:07:11;9.00;;;8.10;;
19278;SDS011;9773;47.062;15.446;2023-06-19T06:09:37;9.00;;;8.10;;
19278;SDS011;9773;47.062;15.446;2023-06-19T06:12:03;8.63;;;7.80;;
19278;SDS011;9773;47.062;15.446;2023-06-19T06:14:29;8.57;;;7.77;;
19278;SDS011;9773;47.062;15.446;2023-06-19T06:16:55;9.70;;;8.60;;
19278;SDS011;9773;47.062;15.446;2023-06-19T06:19:21;9.97;;;8.73;;
19278;SDS011;9773;47.062;15.446;2023-06-19T06:21:48;11.83;;;8.07;;
19278;SDS011;9773;47.062;15.446;2023-06-19T06:24:14;10.23;;;8.33;;
19278;SDS011;9773;47.062;15.446;2023-06-19T06:26:40;9.80;;;7.83;;
19278;SDS011;9773;47.062;15.446;2023-06-19T06:29:07;9.17;;;7.60;;
19278;SDS011;9773;47.062;15.446;2023-06-19T06:31:33;10.30;;;8.83;;
19278;SDS011;9773;47.062;15.446;2023-06-19T06:33:59;9.70;;;8.67;;
19278;SDS011;9773;47.062;15.446;2023-06-19T06:36:25;9.23;;;8.27;;
19278;SDS011;9773;47.062;15.446;2023-06-19T06:38:51;8.53;;;7.53;;
19278;SDS011;9773;47.062;15.446;2023-06-19T06:41:16;12.33;;;8.70;;
19278;SDS011;9773;47.062;15.446;2023-06-19T06:43:42;10.93;;;8.43;;
19278;SDS011;9773;47.062;15.446;2023-06-19T06:46:08;9.90;;;8.33;;
19278;SDS011;9773;47.062;15.446;2023-06-19T06:48:35;9.13;;;7.70;;
19278;SDS011;9773;47.062;15.446;2023-06-19T06:51:01;9.03;;;8.10;;
19278;SDS011;9773;47.062;15.446;2023-06-19T06:53:27;9.43;;;8.23;;
19278;SDS011;9773;47.062;15.446;2023-06-19T06:55:54;8.77;;;7.97;;
19278;SDS011;9773;47.062;15.446;2023-06-19T06:58:20;10.80;;;8.33;;
19278;SDS011;9773;47.062;15.446;2023-06-19T07:00:46;8.23;;;7.53;;
19278;SDS011;9773;47.062;15.446;2023-06-19T07:03:12;9.93;;;8.45;;
19278;SDS011;9773;47.062;15.446;2023-06-19T07:05:40;9.33;;;8.33;;
19278;SDS011;9773;47.062;15.446;2023-06-19T07:08:05;9.93;;;8.93;;
19278;SDS011;9773;47.062;15.446;2023-06-19T07:10:32;9.87;;;8.87;;
19278;SDS011;9773;47.062;15.446;2023-06-19T07:12:58;11.63;;;9.85;;
19278;SDS011;9773;47.062;15.446;2023-06-19T07:15:24;13.70;;;8.93;;
19278;SDS011;9773;47.062;15.446;2023-06-19T07:17:50;8.25;;;7.45;;
19278;SDS011;9773;47.062;15.446;2023-06-19T07:20:15;10.98;;;9.18;;
19278;SDS011;9773;47.062;15.446;2023-06-19T07:22:41;9.68;;;8.77;;
19278;SDS011;9773;47.062;15.446;2023-06-19T07:25:09;9.23;;;8.25;;
19278;SDS011;9773;47.062;15.446;2023-06-19T07:27:36;9.52;;;8.57;;
19278;SDS011;9773;47.062;15.446;2023-06-19T07:30:02;10.70;;;9.23;;
19278;SDS011;9773;47.062;15.446;2023-06-19T07:32:28;10.32;;;8.60;;
19278;SDS011;9773;47.062;15.446;2023-06-19T07:34:53;10.68;;;8.57;;
19278;SDS011;9773;47.062;15.446;2023-06-19T07:37:20;12.18;;;9.15;;
19278;SDS011;9773;47.062;15.446;2023-06-19T07:39:47;11.20;;;9.20;;
19278;SDS011;9773;47.062;15.446;2023-06-19T07:42:15;15.80;;;10.05;;
19278;SDS011;9773;47.062;15.446;2023-06-19T07:44:41;13.45;;;10.75;;
19278;SDS011;9773;47.062;15.446;2023-06-19T07:47:08;10.05;;;8.95;;
19278;SDS011;9773;47.062;15.446;2023-06-19T07:49:34;16.10;;;11.00;;
19278;SDS011;9773;47.062;15.446;2023-06-19T07:52:01;10.57;;;9.48;;
19278;SDS011;9773;47.062;15.446;2023-06-19T07:54:27;10.88;;;9.13;;
19278;SDS011;9773;47.062;15.446;2023-06-19T07:56:53;10.38;;;8.68;;
19278;SDS011;9773;47.062;15.446;2023-06-19T07:59:19;12.98;;;8.82;;
19278;SDS011;9773;47.062;15.446;2023-06-19T08:01:45;9.60;;;8.65;;
19278;SDS011;9773;47.062;15.446;2023-06-19T08:04:11;10.88;;;8.57;;
19278;SDS011;9773;47.062;15.446;2023-06-19T08:06:36;9.25;;;8.05;;
19278;SDS011;9773;47.062;15.446;2023-06-19T08:09:02;9.52;;;8.55;;
19278;SDS011;9773;47.062;15.446;2023-06-19T08:11:28;9.85;;;8.48;;
19278;SDS011;9773;47.062;15.446;2023-06-19T08:13:54;11.90;;;9.10;;
19278;SDS011;9773;47.062;15.446;2023-06-19T08:16:20;10.55;;;9.20;;
19278;SDS011;9773;47.062;15.446;2023-06-19T08:18:46;11.75;;;9.43;;
19278;SDS011;9773;47.062;15.446;2023-06-19T08:21:12;10.48;;;8.80;;
19278;SDS011;9773;47.062;15.446;2023-06-19T08:23:38;9.98;;;8.60;;
19278;SDS011;9773;47.062;15.446;2023-06-19T08:26:05;9.07;;;8.18;;
19278;SDS011;9773;47.062;15.446;2023-06-19T08:28:33;12.20;;;8.30;;
19278;SDS011;9773;47.062;15.446;2023-06-19T08:30:59;9.00;;;7.90;;
19278;SDS011;9773;47.062;15.446;2023-06-19T08:33:25;9.38;;;8.40;;
19278;SDS011;9773;47.062;15.446;2023-06-19T08:35:51;8.70;;;8.00;;
19278;SDS011;9773;47.062;15.446;2023-06-19T08:38:17;8.63;;;7.82;;
19278;SDS011;9773;47.062;15.446;2023-06-19T08:40:44;9.00;;;8.13;;
19278;SDS011;9773;47.062;15.446;2023-06-19T08:43:10;9.30;;;8.50;;
19278;SDS011;9773;47.062;15.446;2023-06-19T08:45:36;8.75;;;7.97;;
19278;SDS011;9773;47.062;15.446;2023-06-19T08:48:02;8.02;;;7.32;;
19278;SDS011;9773;47.062;15.446;2023-06-19T08:50:31;9.85;;;8.18;;
19278;SDS011;9773;47.062;15.446;2023-06-19T08:52:57;10.43;;;9.43;;
19278;SDS011;9773;47.062;15.446;2023-06-19T08:55:23;9.57;;;8.50;;
19278;SDS011;9773;47.062;15.446;2023-06-19T08:57:51;9.32;;;8.38;;
19278;SDS011;9773;47.062;15.446;2023-06-19T09:00:27;8.93;;;8.18;;
19278;SDS011;9773;47.062;15.446;2023-06-19T09:03:00;11.00;;;8.13;;
19278;SDS011;9773;47.062;15.446;2023-06-19T09:05:28;8.60;;;7.90;;
19278;SDS011;9773;47.062;15.446;2023-06-19T09:07:58;9.43;;;8.57;;
19278;SDS011;9773;47.062;15.446;2023-06-19T09:10:28;8.60;;;7.68;;
19278;SDS011;9773;47.062;15.446;2023-06-19T09:12:58;7.93;;;7.18;;
19278;SDS011;9773;47.062;15.446;2023-06-19T09:15:29;8.82;;;7.95;;
19278;SDS011;9773;47.062;15.446;2023-06-19T09:18:04;8.77;;;7.93;;
19278;SDS011;9773;47.062;15.446;2023-06-19T09:20:32;8.80;;;8.00;;
19278;SDS011;9773;47.062;15.446;2023-06-19T09:22:59;8.77;;;7.93;;
19278;SDS011;9773;47.062;15.446;2023-06-19T09:25:25;8.50;;;7.65;;
19278;SDS011;9773;47.062;15.446;2023-06-19T09:27:54;9.60;;;8.70;;
19278;SDS011;9773;47.062;15.446;2023-06-19T09:30:20;8.38;;;7.50;;
19278;SDS011;9773;47.062;15.446;2023-06-19T09:32:47;9.60;;;8.60;;
19278;SDS011;9773;47.062;15.446;2023-06-19T09:35:13;9.82;;;7.82;;
19278;SDS011;9773;47.062;15.446;2023-06-19T09:37:39;8.77;;;7.97;;
19278;SDS011;9773;47.062;15.446;2023-06-19T09:40:06;9.30;;;8.15;;
19278;SDS011;9773;47.062;15.446;2023-06-19T09:42:40;9.75;;;7.55;;
19278;SDS011;9773;47.062;15.446;2023-06-19T09:45:08;8.98;;;8.07;;
19278;SDS011;9773;47.062;15.446;2023-06-19T09:47:38;7.53;;;6.90;;
19278;SDS011;9773;47.062;15.446;2023-06-19T09:50:07;8.80;;;8.02;;
19278;SDS011;9773;47.062;15.446;2023-06-19T09:52:36;8.07;;;7.28;;
19278;SDS011;9773;47.062;15.446;2023-06-19T09:55:02;7.72;;;7.03;;
19278;SDS011;9773;47.062;15.446;2023-06-19T09:57:30;8.07;;;7.38;;
19278;SDS011;9773;47.062;15.446;2023-06-19T10:00:00;7.93;;;7.25;;
19278;SDS011;9773;47.062;15.446;2023-06-19T10:02:35;7.75;;;7.05;;
19278;SDS011;9773;47.062;15.446;2023-06-19T10:05:01;9.02;;;8.07;;
19278;SDS011;9773;47.062;15.446;2023-06-19T10:07:32;9.00;;;8.10;;
19278;SDS011;9773;47.062;15.446;2023-06-19T10:10:03;7.97;;;7.18;;
19278;SDS011;9773;47.062;15.446;2023-06-19T10:18:08;7.53;;;6.90;;
19278;SDS011;9773;47.062;15.446;2023-06-19T10:20:35;7.35;;;6.75;;
19278;SDS011;9773;47.062;15.446;2023-06-19T10:23:10;7.72;;;7.03;;
19278;SDS011;9773;47.062;15.446;2023-06-19T10:25:44;7.78;;;7.18;;
19278;SDS011;9773;47.062;15.446;2023-06-19T10:30:56;8.25;;;7.45;;
19278;SDS011;9773;47.062;15.446;2023-06-19T10:33:26;7.72;;;7.13;;
19278;SDS011;9773;47.062;15.446;2023-06-19T10:35:53;7.60;;;6.90;;
19278;SDS011;9773;47.062;15.446;2023-06-19T10:38:19;7.88;;;7.18;;
19278;SDS011;9773;47.062;15.446;2023-06-19T10:40:45;8.20;;;6.90;;
19278;SDS011;9773;47.062;15.446;2023-06-19T10:43:23;8.55;;;6.82;;
19278;SDS011;9773;47.062;15.446;2023-06-19T10:45:53;7.75;;;6.70;;
19278;SDS011;9773;47.062;15.446;2023-06-19T10:48:23;7.88;;;7.18;;
19278;SDS011;9773;47.062;15.446;2023-06-19T10:50:49;8.50;;;6.93;;
19278;SDS011;9773;47.062;15.446;2023-06-19T10:53:25;8.65;;;7.40;;
19278;SDS011;9773;47.062;15.446;2023-06-19T10:55:56;8.02;;;7.22;;
19278;SDS011;9773;47.062;15.446;2023-06-19T10:58:22;7.35;;;6.70;;
19278;SDS011;9773;47.062;15.446;2023-06-19T11:00:48;7.13;;;6.57;;
19278;SDS011;9773;47.062;15.446;2023-06-19T11:03:14;7.63;;;7.03;;
19278;SDS011;9773;47.062;15.446;2023-06-19T11:05:43;7.80;;;7.20;;
19278;SDS011;9773;47.062;15.446;2023-06-19T11:08:09;8.90;;;7.15;;
19278;SDS011;9773;47.062;15.446;2023-06-19T11:10:35;8.80;;;7.82;;
19278;SDS011;9773;47.062;15.446;2023-06-19T11:13:02;7.30;;;6.60;;
19278;SDS011;9773;47.062;15.446;2023-06-19T11:15:31;6.70;;;6.20;;
19278;SDS011;9773;47.062;15.446;2023-06-19T11:17:59;7.35;;;6.65;;
19278;SDS011;9773;47.062;15.446;2023-06-19T11:20:25;7.22;;;6.65;;
19278;SDS011;9773;47.062;15.446;2023-06-19T11:22:55;7.20;;;6.70;;
19278;SDS011;9773;47.062;15.446;2023-06-19T11:25:22;7.68;;;7.00;;
19278;SDS011;9773;47.062;15.446;2023-06-19T11:27:48;6.85;;;6.35;;
19278;SDS011;9773;47.062;15.446;2023-06-19T11:30:19;7.38;;;6.75;;
19278;SDS011;9773;47.062;15.446;2023-06-19T11:32:57;7.85;;;6.93;;
19278;SDS011;9773;47.062;15.446;2023-06-19T11:35:23;8.02;;;7.32;;
19278;SDS011;9773;47.062;15.446;2023-06-19T11:37:49;8.18;;;7.43;;
19278;SDS011;9773;47.062;15.446;2023-06-19T11:40:16;7.93;;;7.13;;
19278;SDS011;9773;47.062;15.446;2023-06-19T11:42:46;7.78;;;7.18;;
19278;SDS011;9773;47.062;15.446;2023-06-19T11:45:13;7.47;;;6.88;;
19278;SDS011;9773;47.062;15.446;2023-06-19T11:47:39;8.00;;;7.30;;
19278;SDS011;9773;47.062;15.446;2023-06-19T11:50:05;8.63;;;7.82;;
19278;SDS011;9773;47.062;15.446;2023-06-19T11:52:32;7.53;;;6.93;;
19278;SDS011;9773;47.062;15.446;2023-06-19T11:54:57;7.38;;;6.85;;
19278;SDS011;9773;47.062;15.446;2023-06-19T11:57:23;7.70;;;7.10;;
19278;SDS011;9773;47.062;15.446;2023-06-19T11:59:49;7.53;;;6.93;;
19278;SDS011;9773;47.062;15.446;2023-06-19T12:02:15;7.88;;;7.18;;
19278;SDS011;9773;47.062;15.446;2023-06-19T12:04:40;7.60;;;6.93;;
19278;SDS011;9773;47.062;15.446;2023-06-19T12:07:06;8.02;;;7.22;;
19278;SDS011;9773;47.062;15.446;2023-06-19T12:09:33;7.78;;;7.18;;
19278;SDS011;9773;47.062;15.446;2023-06-19T12:11:59;9.05;;;7.70;;
19278;SDS011;9773;47.062;15.446;2023-06-19T12:14:25;8.77;;;8.00;;
19278;SDS011;9773;47.062;15.446;2023-06-19T12:16:51;7.70;;;7.10;;
19278;SDS011;9773;47.062;15.446;2023-06-19T12:19:17;8.45;;;7.75;;
19278;SDS011;9773;47.062;15.446;2023-06-19T12:21:43;7.72;;;7.13;;
19278;SDS011;9773;47.062;15.446;2023-06-19T12:24:09;7.50;;;6.90;;
19278;SDS011;9773;47.062;15.446;2023-06-19T12:26:35;8.50;;;7.72;;
19278;SDS011;9773;47.062;15.446;2023-06-19T12:29:05;7.78;;;7.07;;
19278;SDS011;9773;47.062;15.446;2023-06-19T12:31:35;7.85;;;7.15;;
19278;SDS011;9773;47.062;15.446;2023-06-19T12:34:01;7.97;;;7.38;;
19278;SDS011;9773;47.062;15.446;2023-06-19T12:36:28;7.65;;;6.97;;
19278;SDS011;9773;47.062;15.446;2023-06-19T12:38:56;8.68;;;7.80;;
19278;SDS011;9773;47.062;15.446;2023-06-19T12:41:22;10.65;;;8.02;;
19278;SDS011;9773;47.062;15.446;2023-06-19T12:43:47;8.38;;;7.68;;
19278;SDS011;9773;47.062;15.446;2023-06-19T12:46:13;9.43;;;7.65;;
19278;SDS011;9773;47.062;15.446;2023-06-19T12:48:40;8.23;;;7.55;;
19278;SDS011;9773;47.062;15.446;2023-06-19T12:51:06;8.82;;;8.05;;
19278;SDS011;9773;47.062;15.446;2023-06-19T12:53:32;8.07;;;7.15;;
19278;SDS011;9773;47.062;15.446;2023-06-19T12:55:59;8.68;;;7.88;;
19278;SDS011;9773;47.062;15.446;2023-06-19T12:58:25;8.07;;;7.47;;
19278;SDS011;9773;47.062;15.446;2023-06-19T13:00:52;8.13;;;7.53;;
19278;SDS011;9773;47.062;15.446;2023-06-19T13:03:18;8.30;;;7.70;;
19278;SDS011;9773;47.062;15.446;2023-06-19T13:05:45;8.65;;;7.80;;
19278;SDS011;9773;47.062;15.446;2023-06-19T13:08:11;8.40;;;7.70;;
19278;SDS011;9773;47.062;15.446;2023-06-19T13:10:37;8.30;;;7.68;;
19278;SDS011;9773;47.062;15.446;2023-06-19T13:13:03;8.57;;;7.88;;
19278;SDS011;9773;47.062;15.446;2023-06-19T13:15:30;8.38;;;7.57;;
19278;SDS011;9773;47.062;15.446;2023-06-19T13:17:58;8.80;;;8.00;;
19278;SDS011;9773;47.062;15.446;2023-06-19T13:20:24;9.02;;;8.13;;
19278;SDS011;9773;47.062;15.446;2023-06-19T13:22:50;8.43;;;7.63;;
19278;SDS011;9773;47.062;15.446;2023-06-19T13:25:17;8.60;;;7.90;;
19278;SDS011;9773;47.062;15.446;2023-06-19T13:27:44;8.52;;;7.93;;
19278;SDS011;9773;47.062;15.446;2023-06-19T13:30:09;9.15;;;7.32;;
19278;SDS011;9773;47.062;15.446;2023-06-19T13:32:36;7.68;;;7.07;;
19278;SDS011;9773;47.062;15.446;2023-06-19T13:35:03;8.20;;;7.50;;
19278;SDS011;9773;47.062;15.446;2023-06-19T13:37:30;8.15;;;7.38;;
19278;SDS011;9773;47.062;15.446;2023-06-19T13:39:55;8.00;;;7.28;;
19278;SDS011;9773;47.062;15.446;2023-06-19T13:42:22;7.95;;;7.25;;
19278;SDS011;9773;47.062;15.446;2023-06-19T13:44:47;9.45;;;7.20;;
19278;SDS011;9773;47.062;15.446;2023-06-19T13:47:13;8.63;;;7.85;;
19278;SDS011;9773;47.062;15.446;2023-06-19T13:49:39;9.30;;;8.50;;
19278;SDS011;9773;47.062;15.446;2023-06-19T13:52:05;8.02;;;7.13;;
19278;SDS011;9773;47.062;15.446;2023-06-19T13:54:31;9.05;;;8.27;;
19278;SDS011;9773;47.062;15.446;2023-06-19T13:56:57;7.50;;;6.90;;
19278;SDS011;9773;47.062;15.446;2023-06-19T13:59:23;8.13;;;7.53;;
19278;SDS011;9773;47.062;15.446;2023-06-19T14:01:49;8.18;;;7.47;;
19278;SDS011;9773;47.062;15.446;2023-06-19T14:04:15;7.60;;;7.00;;
19278;SDS011;9773;47.062;15.446;2023-06-19T14:06:40;7.60;;;6.85;;
19278;SDS011;9773;47.062;15.446;2023-06-19T14:09:08;7.55;;;6.85;;
19278;SDS011;9773;47.062;15.446;2023-06-19T14:11:35;7.40;;;6.80;;
19278;SDS011;9773;47.062;15.446;2023-06-19T14:14:00;7.65;;;6.78;;
19278;SDS011;9773;47.062;15.446;2023-06-19T14:16:26;7.93;;;7.22;;
19278;SDS011;9773;47.062;15.446;2023-06-19T14:18:52;7.38;;;6.78;;
19278;SDS011;9773;47.062;15.446;2023-06-19T14:21:17;7.80;;;7.20;;
19278;SDS011;9773;47.062;15.446;2023-06-19T14:23:43;7.30;;;6.63;;
19278;SDS011;9773;47.062;15.446;2023-06-19T14:26:10;7.78;;;7.07;;
19278;SDS011;9773;47.062;15.446;2023-06-19T14:28:37;7.70;;;7.10;;
19278;SDS011;9773;47.062;15.446;2023-06-19T14:31:06;7.47;;;6.88;;
19278;SDS011;9773;47.062;15.446;2023-06-19T14:33:31;8.20;;;7.60;;
19278;SDS011;9773;47.062;15.446;2023-06-19T14:36:02;8.38;;;7.53;;
19278;SDS011;9773;47.062;15.446;2023-06-19T14:38:28;7.97;;;7.28;;
19278;SDS011;9773;47.062;15.446;2023-06-19T14:40:58;7.65;;;6.93;;
19278;SDS011;9773;47.062;15.446;2023-06-19T14:43:26;9.18;;;8.38;;
19278;SDS011;9773;47.062;15.446;2023-06-19T14:45:52;7.63;;;7.07;;
19278;SDS011;9773;47.062;15.446;2023-06-19T14:48:18;7.35;;;6.65;;
19278;SDS011;9773;47.062;15.446;2023-06-19T14:50:43;7.97;;;7.38;;
19278;SDS011;9773;47.062;15.446;2023-06-19T14:53:10;8.43;;;6.93;;
19278;SDS011;9773;47.062;15.446;2023-06-19T14:55:36;7.72;;;7.13;;
19278;SDS011;9773;47.062;15.446;2023-06-19T14:58:05;7.68;;;7.07;;